Time;durP1;ratioP1;P1;durP2;ratioP2;P2;SDS_P1;SDS_P2;PMS_P1;PMS_P2;Temp;Humidity;BMP_temperature;BMP_pressure;BME280_temperature;BME280_humidity;BME280_pressure;Samples;Min_cycle;Max_cycle;Signal;HPM_P1;HPM_P2
2023/07/01 18:18:02;;;;;;;55.28;6.50;;;;;;;;;;5053427;27;20401;-57
2023/07/01 18:20:27;;;;;;;247.82;208.55;;;;;;;;;;5054322;28;21236;-57
2023/07/01 18:22:52;;;;;;;98.33;12.63;;;;;;;;;;5021377;28;20025;-56
2023/07/01 18:25:18;;;;;;;152.73;92.20;;;;;;;;;;5023826;28;20352;-57
2023/07/01 18:27:43;;;;;;;245.48;198.80;;;;;;;;;;5022044;28;20264;-57
2023/07/01 18:30:09;;;;;;;182.87;112.93;;;;;;;;;;5026015;28;20467;-57
2023/07/01 18:32:34;;;;;;;392.98;346.77;;;;;;;;;;5023682;28;20355;-57
2023/07/01 18:34:59;;;;;;;586.23;525.43;;;;;;;;;;5022224;28;20276;-55
2023/07/01 18:37:24;;;;;;;653.07;591.93;;;;;;;;;;5021709;28;20044;-55
2023/07/01 18:39:50;;;;;;;450.17;384.27;;;;;;;;;;5021197;28;20021;-58
2023/07/01 18:42:15;;;;;;;690.33;625.58;;;;;;;;;;5022135;28;20276;-56
2023/07/01 18:44:40;;;;;;;579.00;516.53;;;;;;;;;;5022168;28;20024;-58
2023/07/01 18:47:06;;;;;;;481.83;434.17;;;;;;;;;;5021196;28;20056;-56
2023/07/01 18:49:31;;;;;;;610.10;554.90;;;;;;;;;;5023854;28;20033;-55
2023/07/01 18:51:56;;;;;;;619.77;562.17;;;;;;;;;;5020563;28;20030;-58
2023/07/01 18:54:21;;;;;;;424.13;375.37;;;;;;;;;;5022586;28;20366;-57
2023/07/01 18:56:47;;;;;;;387.13;262.87;;;;;;;;;;5019794;28;20035;-57
2023/07/01 18:59:12;;;;;;;271.57;212.60;;;;;;;;;;5021558;28;20033;-56
2023/07/01 19:01:37;;;;;;;555.00;477.07;;;;;;;;;;5022260;28;20295;-56
2023/07/01 19:04:03;;;;;;;649.40;587.30;;;;;;;;;;5022142;28;20717;-56
2023/07/01 19:06:28;;;;;;;399.48;341.15;;;;;;;;;;5019766;28;20353;-57
2023/07/01 19:08:53;;;;;;;211.27;109.67;;;;;;;;;;5020703;28;20034;-57
2023/07/01 19:11:18;;;;;;;162.53;61.70;;;;;;;;;;5023503;28;20278;-56
2023/07/01 19:13:43;;;;;;;112.43;29.50;;;;;;;;;;5021431;28;20029;-57
2023/07/01 19:16:10;;;;;;;287.67;193.73;;;;;;;;;;5019374;28;20065;-56
2023/07/01 19:18:35;;;;;;;556.03;437.15;;;;;;;;;;5024025;28;20275;-57
2023/07/01 19:21:00;;;;;;;349.60;243.73;;;;;;;;;;5018964;28;20030;-56
2023/07/01 19:23:29;;;;;;;452.77;378.73;;;;;;;;;;5022784;28;20026;-56
2023/07/01 19:25:54;;;;;;;251.07;174.68;;;;;;;;;;5019658;28;20272;-57
2023/07/01 19:28:21;;;;;;;182.53;91.57;;;;;;;;;;5014726;28;20388;-56
2023/07/01 19:30:47;;;;;;;337.48;248.85;;;;;;;;;;5007492;28;20570;-56
2023/07/01 19:33:18;;;;;;;421.73;336.48;;;;;;;;;;5008564;28;20033;-54
2023/07/01 19:35:43;;;;;;;196.70;94.40;;;;;;;;;;5009014;28;20120;-57
2023/07/01 19:38:08;;;;;;;498.83;195.73;;;;;;;;;;5008503;28;20021;-56
2023/07/01 19:40:34;;;;;;;416.47;188.70;;;;;;;;;;5010371;28;20117;-57
2023/07/01 19:42:59;;;;;;;89.60;12.17;;;;;;;;;;5010031;28;20296;-57
2023/07/01 19:45:24;;;;;;;149.73;84.40;;;;;;;;;;5010076;28;20112;-58
2023/07/01 19:47:49;;;;;;;165.20;64.23;;;;;;;;;;5009213;28;20296;-57
2023/07/01 19:50:15;;;;;;;254.57;188.47;;;;;;;;;;5008994;28;20674;-57
2023/07/01 19:52:41;;;;;;;75.05;9.40;;;;;;;;;;5009995;28;20280;-56
2023/07/01 19:55:07;;;;;;;100.30;12.65;;;;;;;;;;5007231;28;20025;-58
2023/07/01 19:57:32;;;;;;;120.78;66.65;;;;;;;;;;5011167;28;20075;-57
2023/07/01 19:59:58;;;;;;;198.82;30.45;;;;;;;;;;5008146;28;20021;-57
2023/07/01 20:02:23;;;;;;;71.85;11.98;;;;;;;;;;5011909;28;20546;-57
2023/07/01 20:04:48;;;;;;;88.57;10.30;;;;;;;;;;5007654;28;20026;-56
2023/07/01 20:07:13;;;;;;;61.60;15.43;;;;;;;;;;5007988;28;20100;-56
2023/07/01 20:09:39;;;;;;;74.15;18.38;;;;;;;;;;5007335;28;20889;-55
2023/07/01 20:12:04;;;;;;;71.28;7.80;;;;;;;;;;5008873;28;20131;-57
2023/07/01 20:14:30;;;;;;;73.82;16.27;;;;;;;;;;5008664;28;20083;-56
2023/07/01 20:16:55;;;;;;;104.03;17.02;;;;;;;;;;5004570;28;20041;-56
2023/07/01 20:19:20;;;;;;;69.37;12.13;;;;;;;;;;5007568;28;20026;-58
2023/07/01 20:21:46;;;;;;;62.25;6.95;;;;;;;;;;5008361;28;20334;-57
2023/07/01 20:24:11;;;;;;;134.93;61.35;;;;;;;;;;5005977;28;20029;-58
2023/07/01 20:26:36;;;;;;;72.40;8.10;;;;;;;;;;5006778;28;20091;-56
2023/07/01 20:29:01;;;;;;;90.10;10.20;;;;;;;;;;5006209;28;20270;-57
2023/07/01 20:31:27;;;;;;;69.68;8.00;;;;;;;;;;5005595;28;20276;-58
2023/07/01 20:33:52;;;;;;;69.20;7.90;;;;;;;;;;5009429;28;20065;-58
2023/07/01 20:36:17;;;;;;;64.97;7.67;;;;;;;;;;5009123;28;20951;-57
2023/07/01 20:38:42;;;;;;;66.83;7.60;;;;;;;;;;5008462;28;20395;-57
2023/07/01 20:41:07;;;;;;;91.55;10.05;;;;;;;;;;5005800;28;20060;-57
2023/07/01 20:43:33;;;;;;;62.40;6.83;;;;;;;;;;5007113;28;20295;-55
2023/07/01 20:45:58;;;;;;;112.97;10.77;;;;;;;;;;5006431;28;20038;-57
2023/07/01 20:48:23;;;;;;;64.23;7.43;;;;;;;;;;5008280;28;20765;-56
2023/07/01 20:50:48;;;;;;;55.87;6.57;;;;;;;;;;5004418;28;20376;-58
2023/07/01 20:53:14;;;;;;;66.50;7.68;;;;;;;;;;5005045;28;20443;-57
2023/07/01 20:55:40;;;;;;;41.90;5.72;;;;;;;;;;5007118;28;20041;-56
2023/07/01 20:58:06;;;;;;;77.65;8.35;;;;;;;;;;5005610;28;20446;-55
2023/07/01 21:00:31;;;;;;;60.72;6.95;;;;;;;;;;5007117;28;20313;-56
2023/07/01 21:02:56;;;;;;;103.60;10.82;;;;;;;;;;5004797;28;20120;-56
2023/07/01 21:05:21;;;;;;;62.03;6.93;;;;;;;;;;5006730;28;20422;-57
2023/07/01 21:07:47;;;;;;;72.67;7.63;;;;;;;;;;5006106;28;20267;-55
2023/07/01 21:10:12;;;;;;;54.43;6.67;;;;;;;;;;5004924;28;20268;-56
2023/07/01 21:12:37;;;;;;;54.65;6.53;;;;;;;;;;5009759;28;20113;-58
2023/07/01 21:15:03;;;;;;;108.25;11.55;;;;;;;;;;5003270;28;20040;-57
2023/07/01 21:17:30;;;;;;;48.45;6.03;;;;;;;;;;5006452;28;20084;-55
2023/07/01 21:19:56;;;;;;;66.60;7.70;;;;;;;;;;5005464;28;20064;-56
2023/07/01 21:22:22;;;;;;;71.40;7.57;;;;;;;;;;5008579;28;20033;-57
2023/07/01 21:24:47;;;;;;;79.03;8.38;;;;;;;;;;5007528;28;20026;-54
2023/07/01 21:27:31;;;;;;;64.70;7.10;;;;;;;;;;5004873;28;20274;-56
2023/07/01 21:30:00;;;;;;;94.53;18.23;;;;;;;;;;5006860;28;20272;-57
2023/07/01 21:32:26;;;;;;;67.90;7.40;;;;;;;;;;5005026;28;20111;-54
2023/07/01 21:34:51;;;;;;;84.50;9.33;;;;;;;;;;5006293;28;20572;-56
2023/07/01 21:37:16;;;;;;;66.40;7.43;;;;;;;;;;5005926;28;20311;-55
2023/07/01 21:39:41;;;;;;;65.43;7.43;;;;;;;;;;5007785;28;20268;-54
2023/07/01 21:42:07;;;;;;;98.00;10.43;;;;;;;;;;5010498;28;20283;-54
2023/07/01 21:44:32;;;;;;;65.13;7.37;;;;;;;;;;5008574;28;20244;-55
2023/07/01 21:46:59;;;;;;;79.55;9.07;;;;;;;;;;5005022;28;20283;-56
2023/07/01 21:49:24;;;;;;;48.33;6.38;;;;;;;;;;5006714;28;20034;-55
